createdAt,value
2018-04-29T00:00:17.571Z,13.30
2018-04-29T00:03:40.769Z,13.20
2018-04-29T00:07:03.977Z,13.20
2018-04-29T00:10:26.418Z,13.10
2018-04-29T00:13:48.866Z,13.10
2018-04-29T00:17:12.081Z,13.00
2018-04-29T00:20:34.522Z,12.90
2018-04-29T00:23:57.730Z,12.90
2018-04-29T00:27:20.179Z,12.90
2018-04-29T00:30:43.389Z,12.80
2018-04-29T00:34:05.830Z,12.80
2018-04-29T00:37:28.269Z,12.80
2018-04-29T00:40:51.482Z,12.70
2018-04-29T00:44:13.913Z,12.70
2018-04-29T00:47:36.353Z,12.70
2018-04-29T00:50:58.797Z,12.60
2018-04-29T00:54:21.237Z,12.60
2018-04-29T00:57:43.682Z,12.60
2018-04-29T01:01:06.894Z,12.50
2018-04-29T01:04:29.331Z,12.50
2018-04-29T01:07:52.534Z,12.50
2018-04-29T01:11:14.997Z,12.50
2018-04-29T01:14:37.506Z,12.50
2018-04-29T01:17:59.954Z,12.40
2018-04-29T01:21:22.394Z,12.40
2018-04-29T01:24:44.833Z,12.30
2018-04-29T01:28:08.057Z,12.10
2018-04-29T01:31:30.499Z,12.10
2018-04-29T01:34:52.933Z,12.10
2018-04-29T01:38:15.385Z,12.00
2018-04-29T01:41:37.825Z,12.10
2018-04-29T01:45:00.273Z,12.00
2018-04-29T01:48:22.709Z,12.00
2018-04-29T01:51:45.915Z,11.90
2018-04-29T01:55:08.378Z,11.80
2018-04-29T01:58:30.847Z,11.80
2018-04-29T02:01:53.274Z,11.80
2018-04-29T02:05:15.718Z,11.80
2018-04-29T02:08:38.167Z,11.90
2018-04-29T02:12:00.605Z,11.80
2018-04-29T02:15:23.050Z,11.80
2018-04-29T02:18:46.254Z,11.90
2018-04-29T02:22:08.699Z,11.80
2018-04-29T02:25:31.914Z,11.90
2018-04-29T02:28:54.358Z,11.80
2018-04-29T02:32:16.794Z,11.80
2018-04-29T02:35:39.242Z,11.90
2018-04-29T02:39:01.696Z,11.90
2018-04-29T02:42:24.127Z,11.80
2018-04-29T02:45:46.566Z,11.80
2018-04-29T02:49:09.779Z,11.80
2018-04-29T02:52:32.227Z,11.80
2018-04-29T02:59:30.062Z,11.80
2018-04-29T03:02:52.498Z,11.70
2018-04-29T03:06:14.936Z,11.70
2018-04-29T03:09:38.138Z,11.70
2018-04-29T03:13:00.582Z,11.70
2018-04-29T03:16:23.031Z,11.70
2018-04-29T03:19:45.470Z,11.70
2018-04-29T03:23:07.909Z,11.70
2018-04-29T03:26:31.122Z,11.60
2018-04-29T03:29:53.548Z,11.60
2018-04-29T03:33:15.993Z,11.60
2018-04-29T03:36:38.441Z,11.60
2018-04-29T03:40:00.877Z,11.60
2018-04-29T03:43:23.308Z,11.60
2018-04-29T03:46:45.749Z,11.60
2018-04-29T03:50:08.185Z,11.60
2018-04-29T03:53:30.625Z,11.60
2018-04-29T04:01:01.044Z,11.50
2018-04-29T04:04:23.477Z,11.50
2018-04-29T04:07:46.699Z,11.50
2018-04-29T04:11:09.132Z,11.50
2018-04-29T04:14:32.345Z,11.60
2018-04-29T04:17:54.782Z,11.60
2018-04-29T04:21:17.983Z,11.60
2018-04-29T04:24:40.421Z,11.60
2018-04-29T04:28:03.634Z,11.70
2018-04-29T04:31:26.069Z,11.60
2018-04-29T04:34:49.279Z,11.70
2018-04-29T04:38:11.723Z,11.70
2018-04-29T04:41:34.921Z,11.80
2018-04-29T04:44:57.389Z,11.70
2018-04-29T04:48:19.833Z,11.80
2018-04-29T04:51:43.041Z,11.90
2018-04-29T04:55:05.486Z,11.90
2018-04-29T04:58:28.718Z,12.10
2018-04-29T05:01:51.153Z,12.00
2018-04-29T05:05:13.618Z,12.10
2018-04-29T05:08:36.055Z,12.20
2018-04-29T05:11:59.270Z,12.50
2018-04-29T05:15:21.705Z,12.40
2018-04-29T05:18:44.930Z,12.70
2018-04-29T05:22:07.438Z,12.70
2018-04-29T05:25:29.821Z,12.90
2018-04-29T05:28:53.029Z,13.30
2018-04-29T05:32:15.461Z,13.30
2018-04-29T05:35:38.688Z,13.80
2018-04-29T05:39:01.124Z,13.80
2018-04-29T05:42:24.321Z,14.30
2018-04-29T05:45:46.753Z,14.30
2018-04-29T05:49:09.958Z,14.90
2018-04-29T05:52:32.397Z,14.90
2018-04-29T05:55:54.837Z,15.10
2018-04-29T05:59:18.042Z,15.70
2018-04-29T06:02:40.481Z,15.70
2018-04-29T06:06:02.922Z,15.90
2018-04-29T06:09:25.366Z,16.20
2018-04-29T06:12:47.807Z,16.40
2018-04-29T06:16:11.005Z,16.70
2018-04-29T06:19:34.218Z,16.80
2018-04-29T06:22:56.658Z,16.80
2018-04-29T06:26:19.111Z,16.90
2018-04-29T06:29:41.554Z,17.00
2018-04-29T06:33:03.989Z,17.10
2018-04-29T06:36:26.429Z,17.30
2018-04-29T06:39:48.872Z,17.50
2018-04-29T06:43:12.078Z,18.10
2018-04-29T06:46:34.585Z,18.00
2018-04-29T06:49:57.025Z,18.20
2018-04-29T06:53:19.471Z,18.20
2018-04-29T06:56:41.907Z,18.20
2018-04-29T07:00:05.119Z,18.20
2018-04-29T07:03:27.562Z,18.20
2018-04-29T07:06:50.764Z,18.20
2018-04-29T07:10:13.209Z,18.20
2018-04-29T07:13:36.414Z,18.60
2018-04-29T07:16:58.854Z,18.60
2018-04-29T07:20:22.057Z,19.30
2018-04-29T07:23:44.495Z,19.30
2018-04-29T07:27:07.695Z,20.00
2018-04-29T07:30:30.137Z,20.00
2018-04-29T07:33:52.577Z,20.50
2018-04-29T07:37:15.108Z,20.70
2018-04-29T07:40:37.538Z,20.70
2018-04-29T07:44:00.754Z,21.10
2018-04-29T07:47:23.189Z,21.10
2018-04-29T07:50:46.398Z,21.30
2018-04-29T07:54:08.867Z,21.30
2018-04-29T07:57:31.301Z,21.30
2018-04-29T08:00:54.506Z,20.90
2018-04-29T08:04:16.950Z,20.90
2018-04-29T08:07:40.149Z,21.00
2018-04-29T08:11:02.590Z,21.00
2018-04-29T08:14:25.798Z,21.80
2018-04-29T08:17:48.233Z,21.80
2018-04-29T08:21:10.673Z,22.30
2018-04-29T08:24:33.109Z,22.80
2018-04-29T08:27:55.566Z,23.20
2018-04-29T08:31:18.014Z,23.70
2018-04-29T08:34:41.218Z,23.90
2018-04-29T08:38:03.661Z,23.90
2018-04-29T08:41:26.853Z,24.10
2018-04-29T08:44:49.293Z,24.10
2018-04-29T08:48:12.505Z,24.90
2018-04-29T08:51:34.941Z,24.90
2018-04-29T08:54:58.236Z,25.60
2018-04-29T08:58:20.601Z,25.60
2018-04-29T09:01:43.851Z,26.00
2018-04-29T09:05:06.247Z,25.90
2018-04-29T09:08:29.451Z,26.00
2018-04-29T09:11:51.881Z,26.00
2018-04-29T09:15:14.322Z,26.30
2018-04-29T09:18:36.769Z,26.50
2018-04-29T09:21:59.214Z,26.60
2018-04-29T09:25:21.725Z,27.00
2018-04-29T09:28:44.858Z,27.40
2018-04-29T09:32:07.297Z,27.40
2018-04-29T09:35:30.570Z,27.50
2018-04-29T09:38:52.961Z,27.50
2018-04-29T09:42:15.389Z,27.50
2018-04-29T09:45:37.834Z,27.50
2018-04-29T09:49:00.282Z,27.90
2018-04-29T09:52:22.713Z,28.40
2018-04-29T09:55:45.159Z,28.70
2018-04-29T09:59:08.375Z,28.60
2018-04-29T10:02:31.770Z,28.60
2018-04-29T10:05:54.210Z,28.70
2018-04-29T10:09:17.418Z,28.80
2018-04-29T10:12:39.858Z,28.80
2018-04-29T10:16:02.301Z,28.90
2018-04-29T10:19:24.742Z,29.10
2018-04-29T10:22:47.175Z,29.00
2018-04-29T10:26:09.621Z,28.80
2018-04-29T10:29:32.061Z,28.70
2018-04-29T10:32:54.533Z,28.50
2018-04-29T10:36:16.954Z,28.40
2018-04-29T10:39:40.153Z,28.50
2018-04-29T10:43:02.603Z,28.50
2018-04-29T10:46:25.043Z,28.70
2018-04-29T10:49:47.487Z,29.00
2018-04-29T10:53:10.697Z,28.70
2018-04-29T10:56:33.135Z,28.70
2018-04-29T10:59:56.439Z,28.30
2018-04-29T11:03:18.868Z,28.30
2018-04-29T11:06:41.350Z,28.60
2018-04-29T11:10:04.558Z,28.90
2018-04-29T11:13:27.046Z,28.90
2018-04-29T11:16:49.481Z,29.20
2018-04-29T11:20:11.922Z,29.30
2018-04-29T11:23:35.120Z,29.20
2018-04-29T11:26:57.565Z,29.20
2018-04-29T11:30:20.776Z,29.20
2018-04-29T11:33:43.201Z,29.20
2018-04-29T11:37:06.415Z,29.30
2018-04-29T11:40:28.932Z,29.30
2018-04-29T11:43:52.062Z,29.30
2018-04-29T11:47:14.537Z,29.20
2018-04-29T11:50:36.977Z,29.30
2018-04-29T11:54:00.246Z,29.90
2018-04-29T11:57:22.617Z,29.80
2018-04-29T12:00:45.831Z,30.00
2018-04-29T12:04:08.289Z,30.00
2018-04-29T12:07:30.729Z,30.10
2018-04-29T12:10:53.937Z,30.70
2018-04-29T12:14:16.381Z,30.60
2018-04-29T12:17:39.585Z,30.40
2018-04-29T12:21:02.033Z,30.30
2018-04-29T12:24:25.234Z,30.60
2018-04-29T12:27:47.682Z,30.60
2018-04-29T12:31:10.889Z,30.60
2018-04-29T12:34:33.349Z,30.60
2018-04-29T12:37:55.779Z,30.70
2018-04-29T12:41:18.219Z,30.50
2018-04-29T12:44:40.649Z,30.50
2018-04-29T12:48:03.093Z,30.80
2018-04-29T12:51:25.529Z,30.60
2018-04-29T12:54:47.977Z,30.40
2018-04-29T12:58:10.420Z,30.20
2018-04-29T13:01:32.862Z,30.20
2018-04-29T13:04:55.310Z,29.90
2018-04-29T13:08:18.513Z,29.90
2018-04-29T13:11:40.957Z,29.80
2018-04-29T13:15:04.169Z,29.50
2018-04-29T13:18:26.601Z,29.50
2018-04-29T13:21:49.862Z,29.30
2018-04-29T13:25:12.249Z,29.30
2018-04-29T13:28:35.448Z,29.10
2018-04-29T13:31:57.889Z,29.10
2018-04-29T13:35:21.092Z,29.10
2018-04-29T13:38:43.530Z,29.10
2018-04-29T13:42:06.053Z,28.90
2018-04-29T13:45:28.431Z,28.40
2018-04-29T13:48:50.869Z,28.30
2018-04-29T13:52:13.342Z,28.20
2018-04-29T13:55:35.758Z,28.20
2018-04-29T13:58:58.961Z,27.90
2018-04-29T14:02:22.169Z,27.80
2018-04-29T14:05:44.624Z,27.80
2018-04-29T14:09:07.060Z,27.60
2018-04-29T14:12:30.348Z,27.30
2018-04-29T14:15:52.722Z,27.20
2018-04-29T14:19:15.160Z,27.30
2018-04-29T14:22:37.597Z,27.20
2018-04-29T14:26:00.033Z,27.20
2018-04-29T14:29:22.473Z,27.30
2018-04-29T14:32:45.685Z,27.30
2018-04-29T14:36:08.129Z,27.30
2018-04-29T14:39:30.566Z,27.10
2018-04-29T14:42:53.010Z,27.20
2018-04-29T14:46:15.465Z,27.20
2018-04-29T14:49:38.005Z,27.10
2018-04-29T14:53:00.350Z,27.00
2018-04-29T14:56:23.562Z,27.00
2018-04-29T14:59:46.001Z,27.00
2018-04-29T15:03:08.437Z,27.00
2018-04-29T15:06:30.884Z,27.00
2018-04-29T15:09:53.380Z,26.90
2018-04-29T15:13:15.761Z,26.80
2018-04-29T15:16:38.201Z,26.80
2018-04-29T15:20:01.409Z,26.90
2018-04-29T15:23:23.845Z,26.80
2018-04-29T15:26:46.294Z,26.80
2018-04-29T15:30:08.725Z,26.70
2018-04-29T15:33:31.169Z,26.70
2018-04-29T15:36:54.671Z,26.70
2018-04-29T15:40:17.338Z,26.60
2018-04-29T15:43:39.869Z,26.60
2018-04-29T15:47:03.190Z,26.50
2018-04-29T15:50:25.625Z,26.50
2018-04-29T15:53:48.841Z,26.40
2018-04-29T15:57:11.284Z,26.40
2018-04-29T16:00:34.481Z,26.20
2018-04-29T16:03:56.949Z,26.20
2018-04-29T16:07:19.385Z,26.10
2018-04-29T16:10:42.590Z,25.90
2018-04-29T16:14:05.026Z,25.90
2018-04-29T16:17:28.234Z,25.80
2018-04-29T16:20:50.680Z,25.80
2018-04-29T16:24:13.882Z,25.80
2018-04-29T16:27:36.321Z,25.70
2018-04-29T16:30:59.531Z,25.60
2018-04-29T16:34:22.003Z,25.60
2018-04-29T16:37:44.446Z,25.50
2018-04-29T16:41:07.653Z,25.50
2018-04-29T16:44:30.090Z,25.50
2018-04-29T16:47:53.358Z,25.30
2018-04-29T16:51:15.818Z,25.30
2018-04-29T16:54:38.271Z,25.20
2018-04-29T16:58:00.735Z,25.10
2018-04-29T17:01:23.984Z,25.10
2018-04-29T17:04:47.154Z,25.00
2018-04-29T17:08:09.593Z,25.00
2018-04-29T17:11:32.806Z,25.10
2018-04-29T17:14:55.244Z,25.10
2018-04-29T17:18:18.458Z,25.10
2018-04-29T17:21:40.897Z,25.00
2018-04-29T17:25:04.098Z,25.00
2018-04-29T17:28:26.546Z,25.00
2018-04-29T17:31:49.753Z,25.00
2018-04-29T17:35:12.196Z,24.90
2018-04-29T17:38:35.397Z,24.80
2018-04-29T17:41:57.837Z,24.80
2018-04-29T17:45:21.041Z,24.70
2018-04-29T17:48:43.478Z,24.70
2018-04-29T17:52:06.686Z,24.60
2018-04-29T17:55:29.126Z,24.60
2018-04-29T17:58:52.333Z,24.50
2018-04-29T18:02:14.776Z,24.40
2018-04-29T18:05:37.979Z,24.20
2018-04-29T18:09:00.417Z,24.20
2018-04-29T18:12:22.865Z,24.10
2018-04-29T18:15:45.659Z,24.10
2018-04-29T18:19:08.370Z,24.00
2018-04-29T18:22:31.122Z,23.90
2018-04-29T18:25:53.743Z,23.90
2018-04-29T18:29:16.206Z,23.90
2018-04-29T18:32:38.654Z,23.80
2018-04-29T18:36:01.093Z,23.70
2018-04-29T18:39:23.531Z,23.60
2018-04-29T18:42:46.737Z,23.30
2018-04-29T18:46:09.187Z,23.30
2018-04-29T18:49:32.412Z,23.20
2018-04-29T18:52:54.852Z,23.10
2018-04-29T18:56:17.361Z,23.10
2018-04-29T18:59:39.723Z,23.00
2018-04-29T19:03:02.177Z,22.90
2018-04-29T19:06:24.610Z,22.80
2018-04-29T19:09:47.055Z,22.80
2018-04-29T19:13:10.265Z,22.80
2018-04-29T19:16:32.701Z,22.70
2018-04-29T19:19:55.910Z,22.60
2018-04-29T19:23:18.353Z,22.60
2018-04-29T19:26:41.554Z,22.50
2018-04-29T19:30:03.996Z,22.50
2018-04-29T19:33:27.239Z,22.50
2018-04-29T19:36:49.670Z,22.50
2018-04-29T19:40:12.110Z,22.50
2018-04-29T19:43:35.318Z,22.40
2018-04-29T19:46:57.754Z,22.40
2018-04-29T19:50:20.953Z,22.30
2018-04-29T19:53:43.418Z,22.30
2018-04-29T19:57:05.854Z,22.30
2018-04-29T20:00:28.298Z,22.20
2018-04-29T20:03:51.511Z,22.10
2018-04-29T20:07:13.942Z,22.10
2018-04-29T20:10:36.385Z,22.10
2018-04-29T20:13:58.821Z,22.20
2018-04-29T20:17:22.026Z,22.10
2018-04-29T20:20:44.463Z,22.10
2018-04-29T20:24:07.667Z,22.00
2018-04-29T20:27:30.115Z,21.90
2018-04-29T20:30:53.325Z,21.90
2018-04-29T20:34:15.774Z,21.90
2018-04-29T20:37:38.225Z,21.90
2018-04-29T20:41:00.641Z,21.80
2018-04-29T20:44:23.091Z,21.70
2018-04-29T20:47:45.544Z,21.60
2018-04-29T20:51:07.986Z,21.70
2018-04-29T20:54:31.201Z,21.50
2018-04-29T20:57:53.638Z,21.50
2018-04-29T21:01:16.069Z,21.40
2018-04-29T21:04:38.513Z,21.40
2018-04-29T21:08:00.963Z,21.30
2018-04-29T21:11:23.401Z,21.30
2018-04-29T21:14:45.842Z,21.30
2018-04-29T21:18:09.163Z,21.40
2018-04-29T21:21:31.585Z,21.40
2018-04-29T21:24:54.029Z,21.30
2018-04-29T21:28:16.478Z,21.20
2018-04-29T21:31:38.924Z,21.20
2018-04-29T21:35:01.355Z,21.20
2018-04-29T21:38:24.570Z,21.10
2018-04-29T21:41:47.017Z,21.20
2018-04-29T21:45:10.217Z,21.20
2018-04-29T21:48:32.657Z,21.10
2018-04-29T21:51:55.862Z,21.10
2018-04-29T21:55:18.312Z,21.10
2018-04-29T21:58:41.513Z,20.90
2018-04-29T22:02:04.874Z,20.90
2018-04-29T22:05:28.082Z,20.60
2018-04-29T22:08:50.526Z,20.60
2018-04-29T22:12:13.730Z,20.60
2018-04-29T22:15:36.172Z,20.60
2018-04-29T22:18:59.382Z,20.60
2018-04-29T22:22:21.818Z,20.50
2018-04-29T22:25:45.030Z,20.40
2018-04-29T22:29:07.477Z,20.40
2018-04-29T22:32:29.914Z,20.30
2018-04-29T22:35:52.353Z,20.30
2018-04-29T22:39:14.801Z,20.30
2018-04-29T22:42:37.229Z,20.30
2018-04-29T22:45:59.678Z,20.20
2018-04-29T22:49:22.886Z,20.10
2018-04-29T22:52:45.363Z,20.10
2018-04-29T22:56:07.789Z,20.00
2018-04-29T22:59:30.998Z,19.80
2018-04-29T23:02:53.433Z,19.80
2018-04-29T23:06:15.936Z,19.80
2018-04-29T23:09:38.370Z,19.70
2018-04-29T23:13:01.566Z,19.70
2018-04-29T23:16:24.021Z,19.70
2018-04-29T23:19:47.230Z,19.60
2018-04-29T23:23:09.666Z,19.50
2018-04-29T23:26:32.870Z,19.40
2018-04-29T23:29:55.310Z,19.40
2018-04-29T23:33:18.510Z,19.50
2018-04-29T23:36:41.716Z,19.40
2018-04-29T23:40:04.171Z,19.40
2018-04-29T23:43:26.598Z,19.40
2018-04-29T23:46:49.038Z,19.40
2018-04-29T23:50:11.481Z,19.50
2018-04-29T23:53:33.918Z,19.40
2018-04-29T23:56:56.362Z,19.40
